首页
METAR-TAF:

METAR-TAF

机场 :

斯普利特, 克罗地亚

纬度: 43-32N, 经度: 016-18E, 海拔: 19米

当前天气观测

该预报发布于25分钟前的18:00 UTC
风速10节,风向东转东南
温度 18°C
湿度 94%
气压 1005 hPa
能见度10公里或以上
少量云层高于2000英尺
散云层高于4000英尺

METAR: LDSP 051800Z 11010KT 9999 FEW020 SCT040 18/17 Q1005 NOSIG

时间: 20:25 (18:25 UTC)

预报

该预报发布于59分钟前的17:26 UTC
预报有效从05日的 18点(UTC)到 06日的 18点(UTC)
风速10节,风向东转东南
能见度10公里或以上
少量云层高于800英尺
散云层高于3000英尺
几率 40% :
短暂存在
从 05日的 18点(UTC)到 06日的 02点(UTC)
能見度: 4000
成为
从 05日的 23点(UTC)到 06日的 01点(UTC)
风速5节,风向东北
短暂存在
从 06日的 11点(UTC)到 06日的 15点(UTC)
风速8节,风向西南

TAF: LDSP 051726Z 0518/0618 11010KT 9999 FEW008 SCT030 TX24/0613Z TN16/0604Z PROB40 TEMPO 0518/0602 4000 RA BECMG 0523/0601 05005KT TEMPO 0611/0615 23008KT

超过4000个机场的气象观测和天气预报(METAR&TAF报告)。

可查询的气象台以黄色和红色小点在地图上表示。

将鼠标移到小点上方,可查看气象台名称。

然后点击查看天气观测和预报。

如需切换地图:点击带黑十字的绿色按钮放大地图;点击带横线的绿色按钮缩小地图;或者点击绿色箭头查看邻近地区的地图。


METAR-TAF: